sensor_id;sensor_type;location;lat;lon;timestamp;P1;durP1;ratioP1;P2;durP2;ratioP2
68800;SDS011;55784;50.734;7.086;2024-03-23T00:54:42;45.30;;;12.68;;
68800;SDS011;55784;50.734;7.086;2024-03-23T00:57:08;42.63;;;12.00;;
68800;SDS011;55784;50.734;7.086;2024-03-23T00:59:33;45.57;;;12.30;;
68800;SDS011;55784;50.734;7.086;2024-03-23T01:01:58;45.27;;;12.00;;
68800;SDS011;55784;50.734;7.086;2024-03-23T01:04:24;46.67;;;13.53;;
68800;SDS011;55784;50.734;7.086;2024-03-23T01:06:49;47.40;;;13.47;;
68800;SDS011;55784;50.734;7.086;2024-03-23T01:09:14;52.17;;;13.53;;
68800;SDS011;55784;50.734;7.086;2024-03-23T01:11:40;54.95;;;15.05;;
68800;SDS011;55784;50.734;7.086;2024-03-23T01:14:05;48.23;;;13.53;;
68800;SDS011;55784;50.734;7.086;2024-03-23T01:16:31;52.27;;;13.70;;
68800;SDS011;55784;50.734;7.086;2024-03-23T01:18:56;57.35;;;14.50;;
68800;SDS011;55784;50.734;7.086;2024-03-23T01:21:22;50.73;;;13.77;;
68800;SDS011;55784;50.734;7.086;2024-03-23T01:23:47;47.93;;;12.93;;
68800;SDS011;55784;50.734;7.086;2024-03-23T01:26:12;51.70;;;11.93;;
68800;SDS011;55784;50.734;7.086;2024-03-23T01:28:38;43.40;;;12.00;;
68800;SDS011;55784;50.734;7.086;2024-03-23T01:31:03;41.43;;;11.47;;
68800;SDS011;55784;50.734;7.086;2024-03-23T01:33:29;45.43;;;12.07;;
68800;SDS011;55784;50.734;7.086;2024-03-23T01:35:54;41.50;;;12.40;;
68800;SDS011;55784;50.734;7.086;2024-03-23T01:38:19;44.43;;;11.27;;
68800;SDS011;55784;50.734;7.086;2024-03-23T01:40:45;41.70;;;11.03;;
68800;SDS011;55784;50.734;7.086;2024-03-23T01:43:11;41.67;;;12.05;;
68800;SDS011;55784;50.734;7.086;2024-03-23T01:45:36;39.60;;;11.23;;
68800;SDS011;55784;50.734;7.086;2024-03-23T01:48:02;41.93;;;10.93;;
68800;SDS011;55784;50.734;7.086;2024-03-23T01:50:28;37.15;;;10.68;;
68800;SDS011;55784;50.734;7.086;2024-03-23T01:52:56;42.03;;;11.23;;
68800;SDS011;55784;50.734;7.086;2024-03-23T01:55:22;45.40;;;11.67;;
68800;SDS011;55784;50.734;7.086;2024-03-23T01:57:48;41.65;;;11.20;;
68800;SDS011;55784;50.734;7.086;2024-03-23T02:00:13;41.97;;;10.23;;
68800;SDS011;55784;50.734;7.086;2024-03-23T02:02:42;36.80;;;10.37;;
68800;SDS011;55784;50.734;7.086;2024-03-23T02:05:11;33.78;;;10.05;;
68800;SDS011;55784;50.734;7.086;2024-03-23T02:07:38;40.20;;;11.02;;
68800;SDS011;55784;50.734;7.086;2024-03-23T02:10:05;33.50;;;10.27;;
68800;SDS011;55784;50.734;7.086;2024-03-23T02:12:31;32.22;;;8.23;;
68800;SDS011;55784;50.734;7.086;2024-03-23T02:14:57;23.03;;;7.10;;
68800;SDS011;55784;50.734;7.086;2024-03-23T02:17:22;17.67;;;6.20;;
68800;SDS011;55784;50.734;7.086;2024-03-23T02:19:47;20.20;;;5.47;;
68800;SDS011;55784;50.734;7.086;2024-03-23T02:22:13;16.90;;;4.90;;
68800;SDS011;55784;50.734;7.086;2024-03-23T02:24:40;17.47;;;5.13;;
68800;SDS011;55784;50.734;7.086;2024-03-23T02:27:05;18.23;;;6.18;;
68800;SDS011;55784;50.734;7.086;2024-03-23T02:29:31;23.15;;;7.40;;
68800;SDS011;55784;50.734;7.086;2024-03-23T02:31:56;19.67;;;7.80;;
68800;SDS011;55784;50.734;7.086;2024-03-23T02:34:21;22.83;;;7.53;;
68800;SDS011;55784;50.734;7.086;2024-03-23T02:36:46;23.70;;;7.80;;
68800;SDS011;55784;50.734;7.086;2024-03-23T02:39:12;19.43;;;7.03;;
68800;SDS011;55784;50.734;7.086;2024-03-23T02:41:37;22.07;;;6.50;;
68800;SDS011;55784;50.734;7.086;2024-03-23T02:46:58;16.73;;;5.43;;
68800;SDS011;55784;50.734;7.086;2024-03-23T02:49:24;16.10;;;5.80;;
68800;SDS011;55784;50.734;7.086;2024-03-23T02:51:50;18.40;;;5.50;;
68800;SDS011;55784;50.734;7.086;2024-03-23T02:54:15;21.17;;;6.50;;
68800;SDS011;55784;50.734;7.086;2024-03-23T02:56:41;24.37;;;7.43;;
68800;SDS011;55784;50.734;7.086;2024-03-23T02:59:06;21.98;;;6.90;;
68800;SDS011;55784;50.734;7.086;2024-03-23T03:01:31;21.50;;;6.20;;
68800;SDS011;55784;50.734;7.086;2024-03-23T03:03:57;14.27;;;4.23;;
68800;SDS011;55784;50.734;7.086;2024-03-23T03:06:23;15.47;;;4.83;;
68800;SDS011;55784;50.734;7.086;2024-03-23T03:08:49;10.75;;;2.90;;
68800;SDS011;55784;50.734;7.086;2024-03-23T03:11:14;7.77;;;1.53;;
68800;SDS011;55784;50.734;7.086;2024-03-23T03:13:40;7.57;;;1.53;;
68800;SDS011;55784;50.734;7.086;2024-03-23T03:16:08;8.03;;;1.70;;
68800;SDS011;55784;50.734;7.086;2024-03-23T03:18:34;8.60;;;1.60;;
68800;SDS011;55784;50.734;7.086;2024-03-23T03:21:00;8.55;;;1.45;;
68800;SDS011;55784;50.734;7.086;2024-03-23T03:23:25;10.00;;;2.03;;
68800;SDS011;55784;50.734;7.086;2024-03-23T03:25:50;10.10;;;2.07;;
68800;SDS011;55784;50.734;7.086;2024-03-23T03:28:15;9.37;;;2.00;;
68800;SDS011;55784;50.734;7.086;2024-03-23T03:30:41;9.83;;;2.00;;
68800;SDS011;55784;50.734;7.086;2024-03-23T03:33:06;8.90;;;1.90;;
68800;SDS011;55784;50.734;7.086;2024-03-23T03:35:31;9.97;;;1.97;;
68800;SDS011;55784;50.734;7.086;2024-03-23T03:37:57;11.03;;;2.17;;
68800;SDS011;55784;50.734;7.086;2024-03-23T03:40:22;8.40;;;1.90;;
68800;SDS011;55784;50.734;7.086;2024-03-23T03:42:48;10.33;;;1.97;;
68800;SDS011;55784;50.734;7.086;2024-03-23T03:45:14;11.32;;;1.90;;
68800;SDS011;55784;50.734;7.086;2024-03-23T03:47:39;11.20;;;1.80;;
68800;SDS011;55784;50.734;7.086;2024-03-23T03:50:04;7.00;;;1.80;;
68800;SDS011;55784;50.734;7.086;2024-03-23T03:52:30;12.18;;;2.28;;
68800;SDS011;55784;50.734;7.086;2024-03-23T03:55:01;10.70;;;2.00;;
68800;SDS011;55784;50.734;7.086;2024-03-23T03:57:27;10.75;;;1.60;;
68800;SDS011;55784;50.734;7.086;2024-03-23T03:59:53;9.30;;;1.40;;
68800;SDS011;55784;50.734;7.086;2024-03-23T04:02:18;8.00;;;1.77;;
68800;SDS011;55784;50.734;7.086;2024-03-23T04:04:43;11.83;;;1.73;;
68800;SDS011;55784;50.734;7.086;2024-03-23T04:07:09;10.37;;;1.90;;
68800;SDS011;55784;50.734;7.086;2024-03-23T04:09:34;14.47;;;1.90;;
68800;SDS011;55784;50.734;7.086;2024-03-23T04:11:59;12.00;;;2.00;;
68800;SDS011;55784;50.734;7.086;2024-03-23T04:14:24;8.83;;;2.10;;
68800;SDS011;55784;50.734;7.086;2024-03-23T04:16:50;11.53;;;2.30;;
68800;SDS011;55784;50.734;7.086;2024-03-23T04:19:15;11.80;;;2.40;;
68800;SDS011;55784;50.734;7.086;2024-03-23T04:21:40;10.97;;;2.33;;
68800;SDS011;55784;50.734;7.086;2024-03-23T04:26:42;13.07;;;2.55;;
68800;SDS011;55784;50.734;7.086;2024-03-23T04:29:08;10.70;;;2.25;;
68800;SDS011;55784;50.734;7.086;2024-03-23T04:31:33;8.90;;;2.40;;
68800;SDS011;55784;50.734;7.086;2024-03-23T04:33:59;9.98;;;1.98;;
68800;SDS011;55784;50.734;7.086;2024-03-23T04:36:28;11.20;;;2.05;;
68800;SDS011;55784;50.734;7.086;2024-03-23T04:38:53;9.90;;;1.90;;
68800;SDS011;55784;50.734;7.086;2024-03-23T04:41:18;8.17;;;1.90;;
68800;SDS011;55784;50.734;7.086;2024-03-23T04:43:44;10.20;;;1.93;;
68800;SDS011;55784;50.734;7.086;2024-03-23T04:46:09;9.63;;;1.90;;
68800;SDS011;55784;50.734;7.086;2024-03-23T04:48:35;6.63;;;1.40;;
68800;SDS011;55784;50.734;7.086;2024-03-23T04:51:01;9.27;;;2.10;;
68800;SDS011;55784;50.734;7.086;2024-03-23T04:53:26;11.85;;;2.15;;
68800;SDS011;55784;50.734;7.086;2024-03-23T04:55:55;11.40;;;1.90;;
68800;SDS011;55784;50.734;7.086;2024-03-23T04:58:22;10.02;;;1.73;;
68800;SDS011;55784;50.734;7.086;2024-03-23T05:00:48;9.38;;;1.58;;
68800;SDS011;55784;50.734;7.086;2024-03-23T05:03:17;9.88;;;1.90;;
68800;SDS011;55784;50.734;7.086;2024-03-23T05:05:44;9.27;;;1.60;;
68800;SDS011;55784;50.734;7.086;2024-03-23T05:08:09;10.90;;;1.90;;
68800;SDS011;55784;50.734;7.086;2024-03-23T05:10:35;9.10;;;1.70;;
68800;SDS011;55784;50.734;7.086;2024-03-23T05:13:00;6.87;;;1.50;;
68800;SDS011;55784;50.734;7.086;2024-03-23T05:15:26;13.13;;;1.60;;
68800;SDS011;55784;50.734;7.086;2024-03-23T05:17:51;9.35;;;1.73;;
68800;SDS011;55784;50.734;7.086;2024-03-23T05:20:16;10.60;;;1.50;;
68800;SDS011;55784;50.734;7.086;2024-03-23T05:22:43;10.23;;;1.50;;
68800;SDS011;55784;50.734;7.086;2024-03-23T05:25:08;9.43;;;1.40;;
68800;SDS011;55784;50.734;7.086;2024-03-23T05:27:34;8.15;;;1.60;;
68800;SDS011;55784;50.734;7.086;2024-03-23T05:30:00;6.47;;;1.43;;
68800;SDS011;55784;50.734;7.086;2024-03-23T05:32:25;8.10;;;1.70;;
68800;SDS011;55784;50.734;7.086;2024-03-23T05:34:51;8.75;;;1.55;;
68800;SDS011;55784;50.734;7.086;2024-03-23T05:37:20;7.18;;;1.20;;
68800;SDS011;55784;50.734;7.086;2024-03-23T05:39:46;10.37;;;1.37;;
68800;SDS011;55784;50.734;7.086;2024-03-23T05:42:14;8.13;;;1.35;;
68800;SDS011;55784;50.734;7.086;2024-03-23T05:44:40;6.83;;;1.23;;
68800;SDS011;55784;50.734;7.086;2024-03-23T05:47:05;10.60;;;1.50;;
68800;SDS011;55784;50.734;7.086;2024-03-23T05:49:31;8.53;;;1.10;;
68800;SDS011;55784;50.734;7.086;2024-03-23T05:51:56;12.83;;;1.60;;
68800;SDS011;55784;50.734;7.086;2024-03-23T05:54:21;7.80;;;1.40;;
68800;SDS011;55784;50.734;7.086;2024-03-23T05:56:47;12.03;;;1.47;;
68800;SDS011;55784;50.734;7.086;2024-03-23T05:59:12;10.98;;;1.50;;
68800;SDS011;55784;50.734;7.086;2024-03-23T06:01:37;8.40;;;1.20;;
68800;SDS011;55784;50.734;7.086;2024-03-23T06:04:04;8.73;;;1.73;;
68800;SDS011;55784;50.734;7.086;2024-03-23T06:06:29;9.50;;;1.50;;
68800;SDS011;55784;50.734;7.086;2024-03-23T06:08:55;10.95;;;1.42;;
68800;SDS011;55784;50.734;7.086;2024-03-23T06:11:20;9.33;;;1.50;;
68800;SDS011;55784;50.734;7.086;2024-03-23T06:13:46;8.40;;;1.30;;
68800;SDS011;55784;50.734;7.086;2024-03-23T06:16:11;9.55;;;1.55;;
68800;SDS011;55784;50.734;7.086;2024-03-23T06:18:36;8.23;;;1.40;;
68800;SDS011;55784;50.734;7.086;2024-03-23T06:21:02;8.00;;;1.90;;
68800;SDS011;55784;50.734;7.086;2024-03-23T06:23:27;7.30;;;1.50;;
68800;SDS011;55784;50.734;7.086;2024-03-23T06:25:52;8.03;;;1.40;;
68800;SDS011;55784;50.734;7.086;2024-03-23T06:28:18;10.33;;;2.00;;
68800;SDS011;55784;50.734;7.086;2024-03-23T06:30:43;10.57;;;1.70;;
68800;SDS011;55784;50.734;7.086;2024-03-23T06:33:08;10.43;;;1.50;;
68800;SDS011;55784;50.734;7.086;2024-03-23T06:35:34;9.10;;;1.65;;
68800;SDS011;55784;50.734;7.086;2024-03-23T06:37:59;11.73;;;1.80;;
68800;SDS011;55784;50.734;7.086;2024-03-23T06:40:24;8.10;;;1.60;;
68800;SDS011;55784;50.734;7.086;2024-03-23T06:42:50;10.70;;;1.90;;
68800;SDS011;55784;50.734;7.086;2024-03-23T06:45:16;9.90;;;1.77;;
68800;SDS011;55784;50.734;7.086;2024-03-23T06:47:41;7.97;;;2.08;;
68800;SDS011;55784;50.734;7.086;2024-03-23T06:50:07;10.97;;;2.10;;
68800;SDS011;55784;50.734;7.086;2024-03-23T06:52:32;13.63;;;2.50;;
68800;SDS011;55784;50.734;7.086;2024-03-23T06:54:57;12.90;;;2.27;;
68800;SDS011;55784;50.734;7.086;2024-03-23T06:57:23;9.07;;;2.20;;
68800;SDS011;55784;50.734;7.086;2024-03-23T06:59:48;10.27;;;2.22;;
68800;SDS011;55784;50.734;7.086;2024-03-23T07:02:14;9.57;;;2.20;;
68800;SDS011;55784;50.734;7.086;2024-03-23T07:04:40;8.45;;;2.00;;
68800;SDS011;55784;50.734;7.086;2024-03-23T07:07:06;10.17;;;2.03;;
68800;SDS011;55784;50.734;7.086;2024-03-23T07:09:31;12.03;;;2.40;;
68800;SDS011;55784;50.734;7.086;2024-03-23T07:11:57;10.50;;;2.33;;
68800;SDS011;55784;50.734;7.086;2024-03-23T07:14:25;9.93;;;2.30;;
68800;SDS011;55784;50.734;7.086;2024-03-23T07:16:50;12.23;;;2.33;;
68800;SDS011;55784;50.734;7.086;2024-03-23T07:19:16;7.53;;;2.03;;
68800;SDS011;55784;50.734;7.086;2024-03-23T07:21:43;10.20;;;2.30;;
68800;SDS011;55784;50.734;7.086;2024-03-23T07:24:08;10.23;;;2.38;;
68800;SDS011;55784;50.734;7.086;2024-03-23T07:26:34;8.80;;;2.23;;
68800;SDS011;55784;50.734;7.086;2024-03-23T07:28:59;9.57;;;2.20;;
68800;SDS011;55784;50.734;7.086;2024-03-23T07:31:25;10.43;;;2.30;;
68800;SDS011;55784;50.734;7.086;2024-03-23T07:33:50;10.77;;;2.70;;
68800;SDS011;55784;50.734;7.086;2024-03-23T07:36:15;8.70;;;2.45;;
68800;SDS011;55784;50.734;7.086;2024-03-23T07:38:41;9.15;;;2.45;;
68800;SDS011;55784;50.734;7.086;2024-03-23T07:41:08;9.83;;;2.50;;
68800;SDS011;55784;50.734;7.086;2024-03-23T07:43:34;11.57;;;3.03;;
68800;SDS011;55784;50.734;7.086;2024-03-23T07:46:00;11.38;;;2.50;;
68800;SDS011;55784;50.734;7.086;2024-03-23T07:48:26;12.30;;;2.65;;
68800;SDS011;55784;50.734;7.086;2024-03-23T07:51:07;13.47;;;2.90;;
68800;SDS011;55784;50.734;7.086;2024-03-23T07:53:34;10.25;;;2.75;;
68800;SDS011;55784;50.734;7.086;2024-03-23T07:56:01;11.77;;;3.17;;
68800;SDS011;55784;50.734;7.086;2024-03-23T07:58:36;9.93;;;2.63;;
68800;SDS011;55784;50.734;7.086;2024-03-23T08:03:34;12.52;;;3.10;;
68800;SDS011;55784;50.734;7.086;2024-03-23T08:06:06;12.53;;;2.67;;
68800;SDS011;55784;50.734;7.086;2024-03-23T08:08:35;11.93;;;2.97;;
68800;SDS011;55784;50.734;7.086;2024-03-23T08:11:01;14.25;;;3.60;;
68800;SDS011;55784;50.734;7.086;2024-03-23T08:13:27;11.03;;;2.93;;
68800;SDS011;55784;50.734;7.086;2024-03-23T08:15:56;8.43;;;1.70;;
68800;SDS011;55784;50.734;7.086;2024-03-23T08:18:22;8.23;;;1.10;;
68800;SDS011;55784;50.734;7.086;2024-03-23T08:20:55;6.75;;;1.05;;
68800;SDS011;55784;50.734;7.086;2024-03-23T08:23:28;5.73;;;0.80;;
68800;SDS011;55784;50.734;7.086;2024-03-23T08:25:57;6.15;;;0.85;;
68800;SDS011;55784;50.734;7.086;2024-03-23T08:28:24;6.93;;;0.90;;
68800;SDS011;55784;50.734;7.086;2024-03-23T08:30:49;4.63;;;0.60;;
68800;SDS011;55784;50.734;7.086;2024-03-23T08:33:15;7.13;;;0.80;;
68800;SDS011;55784;50.734;7.086;2024-03-23T08:35:41;5.70;;;0.70;;
68800;SDS011;55784;50.734;7.086;2024-03-23T08:38:06;7.13;;;0.90;;
68800;SDS011;55784;50.734;7.086;2024-03-23T08:40:32;6.55;;;0.73;;
68800;SDS011;55784;50.734;7.086;2024-03-23T08:42:57;4.22;;;0.70;;
68800;SDS011;55784;50.734;7.086;2024-03-23T08:45:24;4.43;;;0.80;;
68800;SDS011;55784;50.734;7.086;2024-03-23T08:47:50;7.30;;;0.90;;
68800;SDS011;55784;50.734;7.086;2024-03-23T08:50:16;6.57;;;1.10;;
68800;SDS011;55784;50.734;7.086;2024-03-23T08:52:41;9.20;;;1.70;;
68800;SDS011;55784;50.734;7.086;2024-03-23T08:55:07;8.82;;;2.30;;
68800;SDS011;55784;50.734;7.086;2024-03-23T08:57:32;11.10;;;2.97;;
68800;SDS011;55784;50.734;7.086;2024-03-23T08:59:58;7.93;;;2.20;;
68800;SDS011;55784;50.734;7.086;2024-03-23T09:02:23;9.52;;;2.60;;
68800;SDS011;55784;50.734;7.086;2024-03-23T09:04:48;14.40;;;3.00;;
68800;SDS011;55784;50.734;7.086;2024-03-23T09:07:14;10.23;;;3.10;;
68800;SDS011;55784;50.734;7.086;2024-03-23T09:09:41;8.90;;;3.20;;
68800;SDS011;55784;50.734;7.086;2024-03-23T09:12:07;13.17;;;3.20;;
68800;SDS011;55784;50.734;7.086;2024-03-23T09:14:35;10.47;;;3.30;;
68800;SDS011;55784;50.734;7.086;2024-03-23T09:17:00;10.48;;;3.10;;
68800;SDS011;55784;50.734;7.086;2024-03-23T09:19:29;11.77;;;3.43;;
68800;SDS011;55784;50.734;7.086;2024-03-23T09:21:59;12.68;;;3.65;;
68800;SDS011;55784;50.734;7.086;2024-03-23T09:24:27;17.90;;;3.50;;
68800;SDS011;55784;50.734;7.086;2024-03-23T09:26:52;9.40;;;2.50;;
68800;SDS011;55784;50.734;7.086;2024-03-23T09:29:18;7.77;;;2.00;;
68800;SDS011;55784;50.734;7.086;2024-03-23T09:31:46;10.70;;;2.85;;
68800;SDS011;55784;50.734;7.086;2024-03-23T09:34:12;9.57;;;1.90;;
68800;SDS011;55784;50.734;7.086;2024-03-23T09:36:37;9.93;;;1.90;;
68800;SDS011;55784;50.734;7.086;2024-03-23T09:39:06;7.63;;;1.50;;
68800;SDS011;55784;50.734;7.086;2024-03-23T09:41:34;8.05;;;1.67;;
68800;SDS011;55784;50.734;7.086;2024-03-23T09:44:00;9.10;;;1.50;;
68800;SDS011;55784;50.734;7.086;2024-03-23T09:46:26;7.55;;;1.50;;
68800;SDS011;55784;50.734;7.086;2024-03-23T09:48:55;9.15;;;1.58;;
68800;SDS011;55784;50.734;7.086;2024-03-23T09:51:20;8.70;;;1.50;;
68800;SDS011;55784;50.734;7.086;2024-03-23T09:53:46;7.85;;;1.55;;
68800;SDS011;55784;50.734;7.086;2024-03-23T09:56:11;7.97;;;1.60;;
68800;SDS011;55784;50.734;7.086;2024-03-23T09:58:36;9.87;;;1.90;;
68800;SDS011;55784;50.734;7.086;2024-03-23T10:01:02;6.90;;;1.47;;
68800;SDS011;55784;50.734;7.086;2024-03-23T10:03:28;9.00;;;2.10;;
68800;SDS011;55784;50.734;7.086;2024-03-23T10:06:03;7.60;;;1.67;;
68800;SDS011;55784;50.734;7.086;2024-03-23T10:08:30;7.15;;;1.38;;
68800;SDS011;55784;50.734;7.086;2024-03-23T10:10:56;12.55;;;1.90;;
68800;SDS011;55784;50.734;7.086;2024-03-23T10:13:27;6.57;;;1.48;;
68800;SDS011;55784;50.734;7.086;2024-03-23T10:15:56;7.22;;;1.35;;
68800;SDS011;55784;50.734;7.086;2024-03-23T10:18:23;9.35;;;1.90;;
68800;SDS011;55784;50.734;7.086;2024-03-23T10:21:06;7.43;;;1.50;;
68800;SDS011;55784;50.734;7.086;2024-03-23T10:23:34;8.90;;;1.35;;
68800;SDS011;55784;50.734;7.086;2024-03-23T10:26:14;6.47;;;1.52;;
68800;SDS011;55784;50.734;7.086;2024-03-23T10:28:57;9.23;;;1.80;;
68800;SDS011;55784;50.734;7.086;2024-03-23T10:31:30;8.55;;;1.27;;
68800;SDS011;55784;50.734;7.086;2024-03-23T10:33:56;9.40;;;1.30;;
68800;SDS011;55784;50.734;7.086;2024-03-23T10:36:22;7.57;;;1.33;;
68800;SDS011;55784;50.734;7.086;2024-03-23T10:38:49;6.07;;;0.90;;
68800;SDS011;55784;50.734;7.086;2024-03-23T10:41:15;4.38;;;0.63;;
68800;SDS011;55784;50.734;7.086;2024-03-23T10:43:41;2.72;;;0.40;;
68800;SDS011;55784;50.734;7.086;2024-03-23T10:46:08;3.03;;;0.45;;
68800;SDS011;55784;50.734;7.086;2024-03-23T10:48:34;3.90;;;0.68;;
68800;SDS011;55784;50.734;7.086;2024-03-23T10:50:59;5.60;;;0.90;;
68800;SDS011;55784;50.734;7.086;2024-03-23T10:53:25;1.98;;;0.38;;
68800;SDS011;55784;50.734;7.086;2024-03-23T10:55:51;3.47;;;0.40;;
68800;SDS011;55784;50.734;7.086;2024-03-23T10:58:28;2.33;;;0.30;;
68800;SDS011;55784;50.734;7.086;2024-03-23T11:00:57;3.25;;;0.20;;
68800;SDS011;55784;50.734;7.086;2024-03-23T11:03:33;3.00;;;0.40;;
68800;SDS011;55784;50.734;7.086;2024-03-23T11:06:01;3.22;;;0.40;;
68800;SDS011;55784;50.734;7.086;2024-03-23T11:08:40;3.53;;;0.90;;
68800;SDS011;55784;50.734;7.086;2024-03-23T11:11:14;2.25;;;0.30;;
68800;SDS011;55784;50.734;7.086;2024-03-23T11:13:48;4.03;;;0.70;;
68800;SDS011;55784;50.734;7.086;2024-03-23T11:16:15;3.63;;;0.40;;
68800;SDS011;55784;50.734;7.086;2024-03-23T11:18:50;4.53;;;0.77;;
68800;SDS011;55784;50.734;7.086;2024-03-23T11:24:16;6.38;;;1.30;;
68800;SDS011;55784;50.734;7.086;2024-03-23T11:26:42;6.03;;;1.60;;
68800;SDS011;55784;50.734;7.086;2024-03-23T11:29:10;7.97;;;1.48;;
68800;SDS011;55784;50.734;7.086;2024-03-23T11:31:52;5.33;;;1.00;;
68800;SDS011;55784;50.734;7.086;2024-03-23T11:34:18;4.78;;;0.90;;
68800;SDS011;55784;50.734;7.086;2024-03-23T11:36:45;5.03;;;0.93;;
68800;SDS011;55784;50.734;7.086;2024-03-23T11:39:13;4.30;;;0.77;;
68800;SDS011;55784;50.734;7.086;2024-03-23T11:41:49;6.30;;;1.00;;
68800;SDS011;55784;50.734;7.086;2024-03-23T11:44:16;6.70;;;0.93;;
68800;SDS011;55784;50.734;7.086;2024-03-23T11:46:47;5.93;;;0.90;;
68800;SDS011;55784;50.734;7.086;2024-03-23T11:49:22;5.45;;;0.82;;
68800;SDS011;55784;50.734;7.086;2024-03-23T11:51:49;6.55;;;1.27;;
68800;SDS011;55784;50.734;7.086;2024-03-23T11:54:15;6.32;;;1.00;;
68800;SDS011;55784;50.734;7.086;2024-03-23T11:56:59;8.40;;;1.67;;
68800;SDS011;55784;50.734;7.086;2024-03-23T11:59:48;8.80;;;2.50;;
68800;SDS011;55784;50.734;7.086;2024-03-23T12:02:17;7.35;;;2.35;;
68800;SDS011;55784;50.734;7.086;2024-03-23T12:04:43;9.02;;;2.30;;
68800;SDS011;55784;50.734;7.086;2024-03-23T12:09:38;6.87;;;1.90;;
68800;SDS011;55784;50.734;7.086;2024-03-23T12:14:32;6.75;;;1.77;;
68800;SDS011;55784;50.734;7.086;2024-03-23T12:17:07;6.93;;;1.70;;
68800;SDS011;55784;50.734;7.086;2024-03-23T12:19:41;7.40;;;2.20;;
68800;SDS011;55784;50.734;7.086;2024-03-23T12:22:08;7.73;;;1.77;;
68800;SDS011;55784;50.734;7.086;2024-03-23T12:24:33;7.00;;;1.90;;
68800;SDS011;55784;50.734;7.086;2024-03-23T12:27:03;7.40;;;1.98;;
68800;SDS011;55784;50.734;7.086;2024-03-23T12:29:31;8.90;;;2.10;;
68800;SDS011;55784;50.734;7.086;2024-03-23T12:32:00;7.10;;;2.03;;
68800;SDS011;55784;50.734;7.086;2024-03-23T12:34:27;9.73;;;2.15;;
68800;SDS011;55784;50.734;7.086;2024-03-23T12:36:52;7.22;;;1.95;;
68800;SDS011;55784;50.734;7.086;2024-03-23T12:39:18;7.57;;;2.10;;
68800;SDS011;55784;50.734;7.086;2024-03-23T12:41:45;5.90;;;1.85;;
68800;SDS011;55784;50.734;7.086;2024-03-23T12:44:11;6.45;;;1.90;;
68800;SDS011;55784;50.734;7.086;2024-03-23T12:46:37;8.60;;;2.13;;
68800;SDS011;55784;50.734;7.086;2024-03-23T12:49:03;7.05;;;1.90;;
68800;SDS011;55784;50.734;7.086;2024-03-23T12:51:29;6.68;;;1.20;;
68800;SDS011;55784;50.734;7.086;2024-03-23T12:53:54;4.93;;;0.80;;
68800;SDS011;55784;50.734;7.086;2024-03-23T12:56:19;3.77;;;0.70;;
68800;SDS011;55784;50.734;7.086;2024-03-23T12:58:45;3.47;;;0.50;;
68800;SDS011;55784;50.734;7.086;2024-03-23T13:01:10;9.60;;;0.63;;
68800;SDS011;55784;50.734;7.086;2024-03-23T13:03:35;3.30;;;0.70;;
68800;SDS011;55784;50.734;7.086;2024-03-23T13:06:00;4.90;;;0.80;;
68800;SDS011;55784;50.734;7.086;2024-03-23T13:08:26;4.07;;;0.70;;
68800;SDS011;55784;50.734;7.086;2024-03-23T13:10:52;4.70;;;0.73;;
68800;SDS011;55784;50.734;7.086;2024-03-23T13:13:17;5.20;;;0.80;;
68800;SDS011;55784;50.734;7.086;2024-03-23T13:15:49;5.30;;;0.80;;
68800;SDS011;55784;50.734;7.086;2024-03-23T13:18:15;3.47;;;0.70;;
68800;SDS011;55784;50.734;7.086;2024-03-23T13:20:40;3.73;;;0.60;;
68800;SDS011;55784;50.734;7.086;2024-03-23T13:23:07;4.80;;;0.70;;
68800;SDS011;55784;50.734;7.086;2024-03-23T13:25:32;3.35;;;0.60;;
68800;SDS011;55784;50.734;7.086;2024-03-23T13:27:58;4.00;;;0.70;;
68800;SDS011;55784;50.734;7.086;2024-03-23T13:30:23;4.33;;;0.73;;
68800;SDS011;55784;50.734;7.086;2024-03-23T13:32:49;3.40;;;0.60;;
68800;SDS011;55784;50.734;7.086;2024-03-23T13:35:15;4.65;;;0.60;;
68800;SDS011;55784;50.734;7.086;2024-03-23T13:37:40;3.57;;;0.60;;
68800;SDS011;55784;50.734;7.086;2024-03-23T13:40:06;3.35;;;0.70;;
68800;SDS011;55784;50.734;7.086;2024-03-23T13:42:32;5.03;;;0.53;;
68800;SDS011;55784;50.734;7.086;2024-03-23T13:44:57;4.60;;;0.90;;
68800;SDS011;55784;50.734;7.086;2024-03-23T13:47:23;4.27;;;0.70;;
68800;SDS011;55784;50.734;7.086;2024-03-23T13:49:48;4.87;;;0.70;;
68800;SDS011;55784;50.734;7.086;2024-03-23T13:52:14;5.28;;;0.93;;
68800;SDS011;55784;50.734;7.086;2024-03-23T13:54:39;3.63;;;0.70;;
68800;SDS011;55784;50.734;7.086;2024-03-23T13:57:10;4.07;;;0.75;;
68800;SDS011;55784;50.734;7.086;2024-03-23T13:59:35;3.77;;;0.70;;
68800;SDS011;55784;50.734;7.086;2024-03-23T14:02:01;4.00;;;0.90;;
68800;SDS011;55784;50.734;7.086;2024-03-23T14:04:26;5.87;;;1.00;;
68800;SDS011;55784;50.734;7.086;2024-03-23T14:06:51;4.45;;;0.90;;
68800;SDS011;55784;50.734;7.086;2024-03-23T14:09:17;4.33;;;1.00;;
68800;SDS011;55784;50.734;7.086;2024-03-23T14:11:50;5.28;;;1.27;;
68800;SDS011;55784;50.734;7.086;2024-03-23T14:14:16;5.15;;;1.20;;
68800;SDS011;55784;50.734;7.086;2024-03-23T14:16:42;7.55;;;1.42;;
68800;SDS011;55784;50.734;7.086;2024-03-23T14:19:08;6.35;;;1.50;;
68800;SDS011;55784;50.734;7.086;2024-03-23T14:21:33;6.37;;;1.50;;
68800;SDS011;55784;50.734;7.086;2024-03-23T14:24:01;6.53;;;1.70;;
68800;SDS011;55784;50.734;7.086;2024-03-23T14:26:27;7.03;;;1.40;;
68800;SDS011;55784;50.734;7.086;2024-03-23T14:28:53;7.70;;;1.40;;
68800;SDS011;55784;50.734;7.086;2024-03-23T14:31:18;5.40;;;1.20;;
68800;SDS011;55784;50.734;7.086;2024-03-23T14:33:44;5.73;;;1.10;;
68800;SDS011;55784;50.734;7.086;2024-03-23T14:36:15;5.43;;;1.00;;
68800;SDS011;55784;50.734;7.086;2024-03-23T14:38:41;5.20;;;1.00;;
68800;SDS011;55784;50.734;7.086;2024-03-23T14:41:07;5.68;;;0.80;;
68800;SDS011;55784;50.734;7.086;2024-03-23T14:43:33;6.10;;;1.20;;
68800;SDS011;55784;50.734;7.086;2024-03-23T14:46:05;5.60;;;1.10;;
68800;SDS011;55784;50.734;7.086;2024-03-23T14:48:39;4.93;;;0.73;;
68800;SDS011;55784;50.734;7.086;2024-03-23T14:51:06;2.88;;;0.60;;
68800;SDS011;55784;50.734;7.086;2024-03-23T14:53:33;2.90;;;0.70;;
68800;SDS011;55784;50.734;7.086;2024-03-23T14:56:02;4.03;;;1.00;;
68800;SDS011;55784;50.734;7.086;2024-03-23T14:58:30;3.97;;;0.70;;
68800;SDS011;55784;50.734;7.086;2024-03-23T15:01:05;4.37;;;0.70;;
68800;SDS011;55784;50.734;7.086;2024-03-23T15:03:36;4.60;;;0.80;;
68800;SDS011;55784;50.734;7.086;2024-03-23T15:06:03;6.50;;;1.10;;
68800;SDS011;55784;50.734;7.086;2024-03-23T15:08:29;6.70;;;1.30;;
68800;SDS011;55784;50.734;7.086;2024-03-23T15:10:54;8.18;;;1.50;;
68800;SDS011;55784;50.734;7.086;2024-03-23T15:13:23;3.22;;;0.68;;
68800;SDS011;55784;50.734;7.086;2024-03-23T15:15:49;3.78;;;0.70;;
68800;SDS011;55784;50.734;7.086;2024-03-23T15:18:16;3.42;;;0.60;;
68800;SDS011;55784;50.734;7.086;2024-03-23T15:20:56;5.23;;;0.80;;
68800;SDS011;55784;50.734;7.086;2024-03-23T15:23:22;3.90;;;0.60;;
68800;SDS011;55784;50.734;7.086;2024-03-23T15:25:55;4.13;;;0.70;;
68800;SDS011;55784;50.734;7.086;2024-03-23T15:28:21;2.88;;;0.47;;
68800;SDS011;55784;50.734;7.086;2024-03-23T15:30:47;3.85;;;0.30;;
68800;SDS011;55784;50.734;7.086;2024-03-23T15:33:13;1.90;;;0.30;;
68800;SDS011;55784;50.734;7.086;2024-03-23T15:35:38;2.40;;;0.43;;
68800;SDS011;55784;50.734;7.086;2024-03-23T15:38:03;4.23;;;0.80;;
68800;SDS011;55784;50.734;7.086;2024-03-23T15:40:29;3.93;;;0.70;;
68800;SDS011;55784;50.734;7.086;2024-03-23T15:42:54;4.93;;;0.90;;
68800;SDS011;55784;50.734;7.086;2024-03-23T15:45:19;4.53;;;0.70;;
68800;SDS011;55784;50.734;7.086;2024-03-23T15:47:45;3.80;;;0.63;;